Brampton, Canada
Current Conditions -  °F | °C
As of 8:00 PM on Thursday 18 Dec 2014 (Local Time) from CYYZ Reporting Station
Overcast Overcast  
Wind Chill: 14°   Ceiling: 2200
Heat Index: 27°   Visibility: 15mi
Dew Point: 19°   Wind: 17mph
Humidity: 74%   Direction: 330°NNW
Pressure: 30.11"   Gusts: NA
Location:  43.68°N, 79.76°W
Report Text: CYYZ 190100Z 33015KT 15SM OVC022 M03/M07 A3011 RMK SC8 SLP205
Loading
Personal Weather Stations






























Interactive Weather Map New forecast layout! Learn more

10-Day Weather Forecast

Advertisements
Track Severe Weather on mobile